Time,TemperatureF,DewpointF,PressureIn,WindDirection,WindDirectionDegrees,WindSpeedMPH,WindSpeedGustMPH,Humidity,HourlyPrecipIn,Conditions,Clouds,dailyrainin,SoftwareType,DateUTC
2013-07-10 00:13:00,55.2,50.1,29.84,WSW,247,9.4,-999.0,83,-99.99,,,0.00,Acu-Link.com,2013-07-10 08:13:00,
2013-07-10 00:28:00,54.9,49.8,29.84,WNW,292,9.9,-999.0,83,-99.99,,,0.00,Acu-Link.com,2013-07-10 08:28:00,
2013-07-10 00:43:00,54.3,49.6,29.84,WSW,247,15.5,-999.0,84,-99.99,,,0.00,Acu-Link.com,2013-07-10 08:43:00,
2013-07-10 00:59:00,53.8,49.7,29.84,West,270,12.5,-999.0,86,-99.99,,,0.00,Acu-Link.com,2013-07-10 08:59:00,
2013-07-10 01:14:00,53.6,49.8,29.85,West,270,10.4,-999.0,87,-99.99,,,0.00,Acu-Link.com,2013-07-10 09:14:00,
2013-07-10 01:29:00,53.4,49.9,29.85,WSW,247,7.8,-999.0,88,-99.99,,,0.00,Acu-Link.com,2013-07-10 09:29:00,
2013-07-10 01:44:00,53.1,50.2,29.86,West,270,11.4,-999.0,90,-99.99,,,0.00,Acu-Link.com,2013-07-10 09:44:00,
2013-07-10 01:59:00,52.9,50.3,29.85,WSW,247,13.5,-999.0,91,-99.99,,,0.00,Acu-Link.com,2013-07-10 09:59:00,
2013-07-10 02:14:00,52.5,50.2,29.86,West,270,4.7,-999.0,92,-99.99,,,0.00,Acu-Link.com,2013-07-10 10:14:00,
2013-07-10 02:29:00,52.5,50.5,29.86,WSW,247,8.9,-999.0,93,-99.99,,,0.00,Acu-Link.com,2013-07-10 10:29:00,
2013-07-10 02:45:00,52.3,50.3,29.86,West,270,8.3,-999.0,93,-99.99,,,0.00,Acu-Link.com,2013-07-10 10:45:00,
2013-07-10 03:00:00,52.0,50.6,29.86,West,270,8.3,-999.0,95,-99.99,,,0.00,Acu-Link.com,2013-07-10 11:00:00,
2013-07-10 03:15:00,51.6,50.8,29.85,WSW,247,8.3,-999.0,97,-99.99,,,0.00,Acu-Link.com,2013-07-10 11:15:00,
2013-07-10 03:30:00,51.6,51.1,29.85,WSW,247,8.9,-999.0,98,-99.99,,,0.00,Acu-Link.com,2013-07-10 11:30:00,
2013-07-10 03:45:00,51.4,50.9,29.86,WSW,247,5.3,-999.0,98,-99.99,,,0.00,Acu-Link.com,2013-07-10 11:45:00,
2013-07-10 04:01:00,51.4,50.9,29.86,WSW,247,10.9,-999.0,98,-99.99,,,0.00,Acu-Link.com,2013-07-10 12:01:00,
2013-07-10 04:16:00,51.3,50.8,29.85,West,270,6.8,-999.0,98,-99.99,,,0.00,Acu-Link.com,2013-07-10 12:16:00,
2013-07-10 04:31:00,51.4,50.9,29.85,WSW,247,7.8,-999.0,98,-99.99,,,0.00,Acu-Link.com,2013-07-10 12:31:00,
2013-07-10 04:46:00,51.3,50.8,29.86,WSW,247,9.9,-999.0,98,-99.99,,,0.00,Acu-Link.com,2013-07-10 12:46:00,
2013-07-10 05:01:00,51.1,50.6,29.85,WSW,247,8.3,-999.0,98,-99.99,,,0.00,Acu-Link.com,2013-07-10 13:01:00,
2013-07-10 05:17:00,50.9,50.4,29.86,West,270,8.3,-999.0,98,-99.99,,,0.01,Acu-Link.com,2013-07-10 13:17:00,
2013-07-10 05:32:00,51.1,50.6,29.86,West,270,5.8,-999.0,98,-99.99,,,0.02,Acu-Link.com,2013-07-10 13:32:00,
2013-07-10 05:47:00,50.9,50.4,29.85,WSW,247,8.9,-999.0,98,-99.99,,,0.02,Acu-Link.com,2013-07-10 13:47:00,
2013-07-10 06:03:00,51.1,50.6,29.85,West,270,10.4,-999.0,98,-99.99,,,0.03,Acu-Link.com,2013-07-10 14:03:00,
2013-07-10 06:18:00,51.1,50.6,29.85,SW,225,8.9,-999.0,98,-99.99,,,0.04,Acu-Link.com,2013-07-10 14:18:00,
2013-07-10 06:33:00,50.9,50.4,29.85,WSW,247,9.9,-999.0,98,-99.99,,,0.05,Acu-Link.com,2013-07-10 14:33:00,
2013-07-10 06:49:00,51.1,50.6,29.85,West,270,10.9,-999.0,98,-99.99,,,0.07,Acu-Link.com,2013-07-10 14:49:00,
2013-07-10 07:04:00,51.1,50.6,29.84,West,270,10.9,-999.0,98,-99.99,,,0.07,Acu-Link.com,2013-07-10 15:04:00,
2013-07-10 07:19:00,51.4,50.9,29.84,West,270,9.4,-999.0,98,-99.99,,,0.09,Acu-Link.com,2013-07-10 15:19:00,
2013-07-10 07:34:00,51.8,51.3,29.84,West,270,8.3,-999.0,98,-99.99,,,0.10,Acu-Link.com,2013-07-10 15:34:00,
2013-07-10 07:49:00,51.8,51.3,29.83,WSW,247,8.9,-999.0,98,-99.99,,,0.11,Acu-Link.com,2013-07-10 15:49:00,
2013-07-10 08:05:00,51.8,51.3,29.83,West,270,10.4,-999.0,98,-99.99,,,0.13,Acu-Link.com,2013-07-10 16:05:00,
2013-07-10 08:20:00,52.0,51.5,29.83,WSW,247,10.9,-999.0,98,-99.99,,,0.13,Acu-Link.com,2013-07-10 16:20:00,
2013-07-10 08:35:00,52.0,51.5,29.83,WSW,247,10.9,-999.0,98,-99.99,,,0.15,Acu-Link.com,2013-07-10 16:35:00,
2013-07-10 08:50:00,52.3,51.8,29.84,West,270,9.9,-999.0,98,-99.99,,,0.16,Acu-Link.com,2013-07-10 16:50:00,
2013-07-10 09:06:00,52.9,52.4,29.84,West,270,7.3,-999.0,98,-99.99,,,0.16,Acu-Link.com,2013-07-10 17:06:00,
2013-07-10 09:21:00,53.1,52.5,29.83,WSW,247,10.9,-999.0,98,-99.99,,,0.16,Acu-Link.com,2013-07-10 17:21:00,
2013-07-10 09:36:00,53.4,52.8,29.83,West,270,14.0,-999.0,98,-99.99,,,0.17,Acu-Link.com,2013-07-10 17:36:00,
2013-07-10 09:51:00,53.1,52.5,29.83,WSW,247,11.4,-999.0,98,-99.99,,,0.18,Acu-Link.com,2013-07-10 17:51:00,
2013-07-10 10:06:00,50.5,50.0,29.83,West,270,8.9,-999.0,98,-99.99,,,0.19,Acu-Link.com,2013-07-10 18:06:00,
2013-07-10 10:22:00,50.5,50.0,29.83,WNW,292,7.3,-999.0,98,-99.99,,,0.20,Acu-Link.com,2013-07-10 18:22:00,
2013-07-10 10:37:00,51.3,50.8,29.84,West,270,4.2,-999.0,98,-99.99,,,0.20,Acu-Link.com,2013-07-10 18:37:00,
2013-07-10 10:52:00,50.7,49.6,29.83,NW,315,6.8,-999.0,96,-99.99,,,0.20,Acu-Link.com,2013-07-10 18:52:00,
2013-07-10 11:07:00,52.2,50.5,29.83,West,270,5.3,-999.0,94,-99.99,,,0.20,Acu-Link.com,2013-07-10 19:07:00,
2013-07-10 11:22:00,53.8,51.5,29.83,West,270,11.4,-999.0,92,-99.99,,,0.20,Acu-Link.com,2013-07-10 19:22:00,
2013-07-10 11:38:00,54.3,51.1,29.82,West,270,5.3,-999.0,89,-99.99,,,0.20,Acu-Link.com,2013-07-10 19:38:00,
2013-07-10 11:53:00,54.1,50.6,29.82,WSW,247,10.4,-999.0,88,-99.99,,,0.20,Acu-Link.com,2013-07-10 19:53:00,
2013-07-10 12:08:00,54.5,50.7,29.83,West,270,6.3,-999.0,87,-99.99,,,0.20,Acu-Link.com,2013-07-10 20:08:00,
2013-07-10 12:24:00,55.6,50.8,29.83,West,270,6.8,-999.0,84,-99.99,,,0.20,Acu-Link.com,2013-07-10 20:24:00,
2013-07-10 12:39:00,55.0,50.6,29.83,West,270,10.9,-999.0,85,-99.99,,,0.20,Acu-Link.com,2013-07-10 20:39:00,
2013-07-10 12:54:00,53.6,49.5,29.84,West,270,8.9,-999.0,86,-99.99,,,0.20,Acu-Link.com,2013-07-10 20:54:00,
2013-07-10 13:09:00,53.1,49.9,29.85,West,270,9.9,-999.0,89,-99.99,,,0.20,Acu-Link.com,2013-07-10 21:09:00,
2013-07-10 13:24:00,53.6,49.8,29.84,West,270,8.9,-999.0,87,-99.99,,,0.20,Acu-Link.com,2013-07-10 21:24:00,
2013-07-10 13:40:00,53.2,49.4,29.85,West,270,9.4,-999.0,87,-99.99,,,0.20,Acu-Link.com,2013-07-10 21:40:00,
2013-07-10 13:56:00,53.6,50.1,29.85,WSW,247,8.3,-999.0,88,-99.99,,,0.20,Acu-Link.com,2013-07-10 21:56:00,
2013-07-10 14:11:00,53.2,49.7,29.85,WSW,247,10.9,-999.0,88,-99.99,,,0.20,Acu-Link.com,2013-07-10 22:11:00,
2013-07-10 14:27:00,53.2,50.3,29.86,West,270,6.8,-999.0,90,-99.99,,,0.20,Acu-Link.com,2013-07-10 22:27:00,
2013-07-10 14:42:00,52.7,49.8,29.86,WSW,247,7.3,-999.0,90,-99.99,,,0.20,Acu-Link.com,2013-07-10 22:42:00,
2013-07-10 14:57:00,52.9,49.4,29.87,WSW,247,9.9,-999.0,88,-99.99,,,0.20,Acu-Link.com,2013-07-10 22:57:00,
2013-07-10 15:12:00,53.4,49.6,29.86,WSW,247,10.9,-999.0,87,-99.99,,,0.20,Acu-Link.com,2013-07-10 23:12:00,
2013-07-10 15:28:00,53.8,49.7,29.86,WSW,247,13.5,-999.0,86,-99.99,,,0.20,Acu-Link.com,2013-07-10 23:28:00,
2013-07-10 15:43:00,53.4,49.3,29.86,WSW,247,5.8,-999.0,86,-99.99,,,0.20,Acu-Link.com,2013-07-10 23:43:00,
2013-07-10 15:58:00,53.4,49.3,29.87,West,270,6.8,-999.0,86,-99.99,,,0.20,Acu-Link.com,2013-07-10 23:58:00,
2013-07-10 16:14:00,53.2,49.7,29.87,WSW,247,9.9,-999.0,88,-99.99,,,0.20,Acu-Link.com,2013-07-11 00:14:00,
2013-07-10 16:29:00,53.8,50.0,29.87,WSW,247,7.3,-999.0,87,-99.99,,,0.20,Acu-Link.com,2013-07-11 00:29:00,
2013-07-10 16:44:00,54.3,49.9,29.87,WSW,247,8.9,-999.0,85,-99.99,,,0.20,Acu-Link.com,2013-07-11 00:44:00,
2013-07-10 16:59:00,54.3,50.2,29.87,SW,225,9.9,-999.0,86,-99.99,,,0.20,Acu-Link.com,2013-07-11 00:59:00,
2013-07-10 17:14:00,55.0,50.6,29.87,SW,225,9.9,-999.0,85,-99.99,,,0.20,Acu-Link.com,2013-07-11 01:14:00,
2013-07-10 17:30:00,55.0,50.3,29.87,WSW,247,11.4,-999.0,84,-99.99,,,0.20,Acu-Link.com,2013-07-11 01:30:00,
2013-07-10 17:45:00,54.7,50.3,29.87,SSW,202,9.4,-999.0,85,-99.99,,,0.20,Acu-Link.com,2013-07-11 01:45:00,
2013-07-10 18:00:00,55.0,50.6,29.87,SSW,202,9.9,-999.0,85,-99.99,,,0.20,Acu-Link.com,2013-07-11 02:00:00,
2013-07-10 18:15:00,55.2,50.5,29.87,WSW,247,7.8,-999.0,84,-99.99,,,0.20,Acu-Link.com,2013-07-11 02:15:00,
2013-07-10 18:31:00,55.0,50.6,29.87,West,270,6.3,-999.0,85,-99.99,,,0.20,Acu-Link.com,2013-07-11 02:31:00,
2013-07-10 18:46:00,54.7,50.3,29.88,SW,225,8.9,-999.0,85,-99.99,,,0.20,Acu-Link.com,2013-07-11 02:46:00,
2013-07-10 19:01:00,54.7,50.9,29.88,SW,225,6.8,-999.0,87,-99.99,,,0.20,Acu-Link.com,2013-07-11 03:01:00,
2013-07-10 19:16:00,54.7,51.2,29.88,SW,225,5.8,-999.0,88,-99.99,,,0.20,Acu-Link.com,2013-07-11 03:16:00,
2013-07-10 19:31:00,55.0,50.9,29.88,SSW,202,7.3,-999.0,86,-99.99,,,0.20,Acu-Link.com,2013-07-11 03:31:00,
2013-07-10 19:46:00,55.2,51.1,29.88,South,180,6.3,-999.0,86,-99.99,,,0.20,Acu-Link.com,2013-07-11 03:46:00,
2013-07-10 20:01:00,54.9,51.1,29.88,SW,225,4.2,-999.0,87,-99.99,,,0.20,Acu-Link.com,2013-07-11 04:01:00,
2013-07-10 20:17:00,54.3,51.1,29.88,SSW,202,4.7,-999.0,89,-99.99,,,0.20,Acu-Link.com,2013-07-11 04:17:00,
2013-07-10 20:34:00,54.3,52.0,29.88,WSW,247,4.2,-999.0,92,-99.99,,,0.20,Acu-Link.com,2013-07-11 04:34:00,
2013-07-10 20:50:00,54.0,52.0,29.88,WSW,247,4.7,-999.0,93,-99.99,,,0.20,Acu-Link.com,2013-07-11 04:50:00,
2013-07-10 21:05:00,54.0,51.4,29.86,WSW,247,3.7,-999.0,91,-99.99,,,0.20,Acu-Link.com,2013-07-11 05:05:00,
2013-07-10 21:20:00,54.0,52.0,29.87,SSW,202,1.1,-999.0,93,-99.99,,,0.20,Acu-Link.com,2013-07-11 05:20:00,
2013-07-10 21:35:00,53.8,51.8,29.88,ESE,112,0.0,-999.0,93,-99.99,,,0.20,Acu-Link.com,2013-07-11 05:35:00,
2013-07-10 21:50:00,53.6,52.2,29.87,ENE,67,3.2,-999.0,95,-99.99,,,0.20,Acu-Link.com,2013-07-11 05:50:00,
2013-07-10 22:06:00,52.9,52.4,29.86,NE,45,2.2,-999.0,98,-99.99,,,0.20,Acu-Link.com,2013-07-11 06:06:00,
2013-07-10 22:21:00,52.5,52.0,29.86,ENE,67,2.7,-999.0,98,-99.99,,,0.20,Acu-Link.com,2013-07-11 06:21:00,
2013-07-10 22:36:00,52.5,52.0,29.86,SE,135,5.3,-999.0,98,-99.99,,,0.20,Acu-Link.com,2013-07-11 06:36:00,
2013-07-10 22:51:00,52.3,51.8,29.86,ESE,112,3.2,-999.0,98,-99.99,,,0.20,Acu-Link.com,2013-07-11 06:51:00,
2013-07-10 23:07:00,52.3,51.8,29.86,ESE,112,1.7,-999.0,98,-99.99,,,0.20,Acu-Link.com,2013-07-11 07:07:00,
2013-07-10 23:22:00,52.3,51.8,29.87,NNE,22,2.7,-999.0,98,-99.99,,,0.20,Acu-Link.com,2013-07-11 07:22:00,
2013-07-10 23:37:00,52.2,51.7,29.86,ESE,112,2.7,-999.0,98,-99.99,,,0.20,Acu-Link.com,2013-07-11 07:37:00,
2013-07-10 23:52:00,52.2,51.7,29.86,ESE,112,1.7,-999.0,98,-99.99,,,0.20,Acu-Link.com,2013-07-11 07:52:00,